Time;durP1;ratioP1;P1;durP2;ratioP2;P2;SDS_P1;SDS_P2;PMS_P1;PMS_P2;Temp;Humidity;BMP_temperature;BMP_pressure;BME280_temperature;BME280_humidity;BME280_pressure;Samples;Min_cycle;Max_cycle;Signal;HPM_P1;HPM_P2
2022/05/30 00:00:25;;;;;;;1.80;0.40;;;11.50;85.50;;;;;;5034898;28;20087;-62
2022/05/30 00:02:51;;;;;;;1.35;0.40;;;11.50;85.60;;;;;;5034558;28;20444;-63
2022/05/30 00:05:18;;;;;;;1.52;0.30;;;11.50;85.70;;;;;;5034715;28;20030;-62
2022/05/30 00:07:43;;;;;;;1.92;0.52;;;11.50;85.80;;;;;;5033774;28;20036;-63
2022/05/30 00:10:11;;;;;;;2.20;0.45;;;11.50;85.90;;;;;;5042158;28;20025;-63
2022/05/30 00:12:37;;;;;;;2.55;0.57;;;11.50;86.00;;;;;;5041894;28;20037;-62
2022/05/30 00:15:05;;;;;;;2.15;0.70;;;11.40;86.20;;;;;;5035974;28;20030;-63
2022/05/30 00:17:30;;;;;;;3.40;0.70;;;11.40;86.30;;;;;;5048852;28;20021;-62
2022/05/30 00:19:56;;;;;;;2.85;0.40;;;11.40;86.40;;;;;;5035659;28;20075;-62
2022/05/30 00:22:22;;;;;;;1.77;0.50;;;11.40;86.60;;;;;;5036920;28;20028;-62
2022/05/30 00:24:49;;;;;;;3.03;0.50;;;11.30;86.60;;;;;;5033563;28;20014;-62
2022/05/30 00:27:14;;;;;;;2.97;0.47;;;11.20;86.70;;;;;;5047357;28;20075;-62
2022/05/30 00:29:40;;;;;;;2.58;0.50;;;11.20;86.90;;;;;;5035690;28;20068;-62
2022/05/30 00:32:06;;;;;;;1.48;0.35;;;11.10;87.00;;;;;;5033021;28;20497;-62
2022/05/30 00:34:33;;;;;;;1.77;0.40;;;11.10;87.20;;;;;;5034149;28;20021;-62
2022/05/30 00:37:00;;;;;;;2.65;0.60;;;11.00;87.30;;;;;;5046937;28;20108;-62
2022/05/30 00:39:26;;;;;;;2.35;0.40;;;11.00;87.50;;;;;;5044570;28;20021;-62
2022/05/30 00:41:51;;;;;;;2.17;0.32;;;10.90;87.60;;;;;;5050019;28;20024;-62
2022/05/30 00:44:17;;;;;;;2.67;0.65;;;10.90;87.80;;;;;;5044670;28;20025;-62
2022/05/30 00:46:42;;;;;;;2.83;0.60;;;10.80;88.00;;;;;;5050985;28;20029;-62
2022/05/30 00:49:13;;;;;;;3.08;0.73;;;10.70;88.20;;;;;;5035234;28;20029;-62
2022/05/30 00:51:50;;;;;;;1.23;0.45;;;10.70;88.50;;;;;;5046849;28;20519;-62
2022/05/30 00:54:26;;;;;;;2.75;0.47;;;10.60;88.60;;;;;;5051859;28;20523;-62
2022/05/30 00:56:55;;;;;;;1.90;0.50;;;10.50;88.70;;;;;;5039021;28;20049;-62
2022/05/30 00:59:21;;;;;;;2.05;0.65;;;10.50;88.90;;;;;;5045761;28;20036;-62
2022/05/30 01:01:48;;;;;;;1.85;0.70;;;10.50;89.10;;;;;;5039453;28;20036;-62
2022/05/30 01:07:04;;;;;;;2.22;0.75;;;10.40;89.20;;;;;;5037871;28;20440;-62
2022/05/30 01:09:44;;;;;;;2.65;0.65;;;10.30;89.40;;;;;;5040218;28;21332;-62
2022/05/30 01:12:11;;;;;;;;;;;10.20;89.60;;;;;;5049485;28;20035;-62
2022/05/30 01:14:43;;;;;;;2.20;0.50;;;10.10;89.80;;;;;;5042318;28;19905;-62
2022/05/30 01:17:12;;;;;;;2.70;0.60;;;10.00;90.10;;;;;;5052959;28;20040;-62
2022/05/30 01:19:58;;;;;;;1.65;0.45;;;10.00;90.10;;;;;;5038296;28;20049;-62
2022/05/30 01:22:36;;;;;;;2.00;0.43;;;10.00;90.10;;;;;;5059766;28;20025;-62
2022/05/30 01:25:31;;;;;;;3.72;0.60;;;10.00;90.20;;;;;;5034950;28;20021;-62
2022/05/30 01:28:16;;;;;;;2.38;0.60;;;10.00;90.20;;;;;;5044955;28;20455;-62
2022/05/30 01:30:41;;;;;;;1.25;0.63;;;9.90;90.30;;;;;;5032836;28;20100;-62
2022/05/30 01:33:07;;;;;;;2.05;0.60;;;9.80;90.40;;;;;;5033684;28;20112;-62
2022/05/30 01:35:33;;;;;;;1.50;0.75;;;9.60;90.60;;;;;;5045784;28;20104;-62
2022/05/30 01:37:59;;;;;;;1.27;0.50;;;9.50;90.90;;;;;;5041442;28;20033;-62
2022/05/30 01:40:26;;;;;;;0.80;0.43;;;9.40;91.10;;;;;;5053239;28;20104;-62
2022/05/30 01:42:53;;;;;;;2.38;0.40;;;9.30;91.20;;;;;;5048714;28;20020;-62
2022/05/30 01:45:19;;;;;;;1.10;0.50;;;9.30;91.40;;;;;;5045971;28;20028;-62
2022/05/30 01:47:44;;;;;;;1.10;0.40;;;9.30;91.40;;;;;;5033133;28;20021;-62
2022/05/30 01:50:10;;;;;;;2.08;0.50;;;9.30;91.30;;;;;;5061635;28;20550;-62
2022/05/30 01:52:36;;;;;;;1.80;0.60;;;9.30;91.30;;;;;;5043233;28;20164;-62
2022/05/30 01:55:02;;;;;;;1.92;0.60;;;9.20;91.30;;;;;;5031425;28;20041;-63
2022/05/30 01:57:28;;;;;;;1.67;0.50;;;9.20;91.30;;;;;;5042390;28;20329;-62
2022/05/30 01:59:53;;;;;;;1.95;0.60;;;9.20;91.30;;;;;;5051162;28;20029;-62
2022/05/30 02:02:19;;;;;;;2.95;0.80;;;9.20;91.30;;;;;;5052041;28;20032;-62
2022/05/30 02:04:44;;;;;;;1.45;0.63;;;9.10;91.40;;;;;;5051453;28;20051;-62
2022/05/30 02:07:10;;;;;;;1.95;0.50;;;9.10;91.40;;;;;;5052703;28;20074;-62
2022/05/30 02:09:36;;;;;;;1.05;0.50;;;9.00;91.40;;;;;;5052709;28;20036;-62
2022/05/30 02:12:01;;;;;;;2.05;0.57;;;9.00;91.50;;;;;;5043393;28;20029;-62
2022/05/30 02:14:27;;;;;;;0.80;0.45;;;9.00;91.50;;;;;;5039778;28;20024;-62
2022/05/30 02:17:01;;;;;;;1.42;0.40;;;8.90;91.60;;;;;;5038403;28;20061;-62
2022/05/30 02:19:47;;;;;;;1.95;0.57;;;8.90;91.70;;;;;;5052280;28;20119;-61
2022/05/30 02:22:19;;;;;;;2.88;0.52;;;8.90;91.70;;;;;;5051386;28;20354;-62
2022/05/30 02:24:48;;;;;;;1.85;0.60;;;8.80;91.80;;;;;;5032563;28;20018;-62
2022/05/30 02:27:14;;;;;;;2.25;0.60;;;8.70;91.80;;;;;;5032343;28;20028;-62
2022/05/30 02:29:40;;;;;;;1.98;0.80;;;8.70;91.80;;;;;;5041493;28;20036;-62
2022/05/30 02:32:06;;;;;;;1.10;0.70;;;8.70;91.90;;;;;;5050015;28;20408;-62
2022/05/30 02:37:16;;;;;;;2.35;0.70;;;8.70;91.90;;;;;;5046038;28;20126;-62
2022/05/30 02:39:42;;;;;;;2.17;0.65;;;8.60;91.90;;;;;;5043668;28;20488;-62
2022/05/30 02:42:08;;;;;;;3.33;0.65;;;8.60;91.90;;;;;;5052266;28;20380;-61
2022/05/30 02:44:34;;;;;;;2.80;0.70;;;8.60;92.00;;;;;;5051848;28;20013;-62
2022/05/30 02:47:00;;;;;;;1.33;0.60;;;8.60;92.00;;;;;;5040121;28;20099;-61
2022/05/30 02:49:26;;;;;;;2.58;0.60;;;8.60;92.00;;;;;;5032408;28;20044;-61
2022/05/30 02:51:52;;;;;;;3.22;1.00;;;8.60;92.00;;;;;;5031594;28;20159;-61
2022/05/30 02:54:18;;;;;;;3.30;0.60;;;8.60;92.00;;;;;;5032276;28;20044;-62
2022/05/30 02:56:55;;;;;;;3.35;0.70;;;8.60;92.00;;;;;;5044176;28;20022;-61
2022/05/30 02:59:21;;;;;;;2.15;0.77;;;8.60;92.10;;;;;;5031928;28;20030;-62
2022/05/30 03:01:47;;;;;;;2.58;0.98;;;8.60;92.10;;;;;;5045219;28;20029;-62
2022/05/30 03:04:13;;;;;;;2.70;1.00;;;8.60;92.10;;;;;;5031823;28;20036;-62
2022/05/30 03:06:40;;;;;;;2.15;0.90;;;8.50;92.20;;;;;;5032285;28;20115;-62
2022/05/30 03:09:07;;;;;;;2.80;0.73;;;8.50;92.30;;;;;;5031943;28;20029;-62
2022/05/30 03:11:33;;;;;;;4.63;0.65;;;8.50;92.40;;;;;;5032011;28;20097;-62
2022/05/30 03:13:59;;;;;;;1.27;0.70;;;8.50;92.50;;;;;;5046412;28;20111;-62
2022/05/30 03:16:25;;;;;;;1.58;0.75;;;8.50;92.50;;;;;;5042392;28;20034;-62
2022/05/30 03:18:50;;;;;;;1.90;0.77;;;8.50;92.60;;;;;;5053650;28;20029;-62
2022/05/30 03:21:16;;;;;;;3.00;0.95;;;8.50;92.70;;;;;;5054995;28;20029;-62
2022/05/30 03:23:42;;;;;;;4.20;0.73;;;8.40;92.70;;;;;;5041098;28;20036;-62
2022/05/30 03:26:08;;;;;;;2.35;0.70;;;8.40;92.80;;;;;;5055432;28;20090;-62
2022/05/30 03:28:35;;;;;;;1.92;0.82;;;8.40;92.90;;;;;;5051797;28;20020;-62
2022/05/30 03:31:02;;;;;;;2.08;0.60;;;8.40;93.00;;;;;;5053908;28;20477;-62
2022/05/30 03:33:28;;;;;;;1.48;0.60;;;8.40;93.10;;;;;;5047270;28;20049;-62
2022/05/30 03:35:54;;;;;;;1.00;0.50;;;8.30;93.40;;;;;;5047115;28;20437;-62
2022/05/30 03:38:20;;;;;;;0.93;0.40;;;8.20;93.20;;;;;;5036126;28;20097;-62
2022/05/30 03:40:46;;;;;;;0.40;0.30;;;8.20;93.30;;;;;;5047908;28;20025;-62
2022/05/30 03:43:12;;;;;;;1.23;0.47;;;8.20;93.50;;;;;;5036307;28;20376;-62
2022/05/30 03:45:40;;;;;;;0.65;0.30;;;8.20;93.50;;;;;;5035781;28;20434;-61
2022/05/30 03:48:07;;;;;;;0.70;0.40;;;8.20;93.50;;;;;;5035143;28;20029;-62
2022/05/30 03:50:33;;;;;;;0.73;0.38;;;8.10;93.50;;;;;;5035557;28;20437;-62
2022/05/30 03:53:04;;;;;;;0.77;0.50;;;8.10;93.60;;;;;;5047387;28;20077;-62
2022/05/30 03:55:32;;;;;;;0.93;0.45;;;8.10;93.70;;;;;;5033610;28;20043;-62
2022/05/30 03:57:58;;;;;;;1.63;0.52;;;8.10;93.70;;;;;;5035793;28;20113;-62
2022/05/30 04:00:24;;;;;;;3.47;0.68;;;8.10;93.70;;;;;;5035894;28;20096;-62
2022/05/30 04:02:49;;;;;;;1.77;0.80;;;8.00;93.70;;;;;;5036983;28;20378;-62
2022/05/30 04:05:17;;;;;;;1.58;0.70;;;8.00;93.90;;;;;;5054918;28;20412;-62
2022/05/30 04:07:42;;;;;;;1.15;0.60;;;8.00;93.90;;;;;;5053699;28;20495;-62
2022/05/30 04:10:09;;;;;;;3.00;0.60;;;8.00;94.00;;;;;;5054260;28;20033;-62
2022/05/30 04:12:34;;;;;;;0.90;0.60;;;8.00;94.00;;;;;;5053930;28;20033;-61
2022/05/30 04:15:01;;;;;;;3.30;0.77;;;8.00;94.10;;;;;;5053557;28;20029;-62
2022/05/30 04:17:28;;;;;;;4.03;0.57;;;8.00;94.10;;;;;;5042420;28;20377;-62
2022/05/30 04:19:53;;;;;;;1.40;0.50;;;8.00;94.20;;;;;;5053960;28;20494;-62
2022/05/30 04:22:20;;;;;;;2.65;0.68;;;8.10;94.30;;;;;;5054336;28;20054;-62
2022/05/30 04:24:46;;;;;;;0.75;0.40;;;8.00;94.30;;;;;;5053575;28;20032;-62
2022/05/30 04:27:13;;;;;;;1.75;0.73;;;8.00;94.30;;;;;;5045809;28;20029;-62
2022/05/30 04:29:39;;;;;;;2.42;0.95;;;8.10;94.40;;;;;;5049411;28;20032;-62
2022/05/30 04:32:05;;;;;;;1.13;0.60;;;8.00;94.50;;;;;;5054361;28;20040;-62
2022/05/30 04:34:32;;;;;;;1.20;0.80;;;8.00;94.60;;;;;;5040848;28;20520;-62
2022/05/30 04:36:57;;;;;;;1.92;0.73;;;8.00;95.00;;;;;;5053834;28;20043;-62
2022/05/30 04:39:23;;;;;;;3.35;0.85;;;8.00;94.80;;;;;;5050626;28;20013;-62
2022/05/30 04:41:49;;;;;;;1.25;0.73;;;8.00;94.80;;;;;;5034388;28;20067;-62
2022/05/30 04:44:14;;;;;;;1.65;0.70;;;8.10;94.80;;;;;;5047371;28;20018;-62
2022/05/30 04:46:40;;;;;;;0.98;0.70;;;8.10;94.90;;;;;;5034178;28;20485;-62
2022/05/30 04:49:06;;;;;;;2.63;0.70;;;8.10;94.90;;;;;;5050564;28;20049;-62
2022/05/30 04:51:31;;;;;;;1.83;0.73;;;8.10;94.90;;;;;;5046968;28;20053;-61
2022/05/30 04:53:57;;;;;;;2.40;1.10;;;8.20;95.00;;;;;;5045685;28;20033;-62
2022/05/30 04:56:23;;;;;;;1.02;0.60;;;8.20;95.00;;;;;;5047087;28;20033;-62
2022/05/30 04:58:50;;;;;;;2.95;0.75;;;8.20;94.90;;;;;;5042922;28;20053;-62
2022/05/30 05:01:16;;;;;;;1.33;0.80;;;8.20;94.90;;;;;;5043030;28;20041;-61
2022/05/30 05:03:43;;;;;;;1.65;0.90;;;8.20;94.90;;;;;;5051380;28;20029;-62
2022/05/30 05:06:12;;;;;;;1.20;0.65;;;8.30;94.80;;;;;;5037374;28;20087;-62
2022/05/30 05:08:43;;;;;;;3.88;0.82;;;8.30;94.80;;;;;;5050691;28;20021;-62
2022/05/30 05:11:12;;;;;;;3.05;0.95;;;8.30;94.80;;;;;;5051302;28;20106;-62
2022/05/30 05:13:37;;;;;;;1.90;1.00;;;8.30;94.80;;;;;;5050979;28;21022;-62
2022/05/30 05:16:03;;;;;;;4.50;1.00;;;8.40;94.80;;;;;;5043677;28;20029;-62
2022/05/30 05:18:29;;;;;;;1.90;0.88;;;8.40;94.70;;;;;;5033167;28;20040;-62
2022/05/30 05:20:54;;;;;;;2.75;0.90;;;8.50;94.70;;;;;;5033578;28;20033;-62
2022/05/30 05:23:20;;;;;;;1.50;0.80;;;8.40;94.60;;;;;;5031982;28;20021;-62
2022/05/30 05:25:45;;;;;;;2.97;1.23;;;8.50;94.60;;;;;;5043062;28;20070;-62
2022/05/30 05:28:11;;;;;;;2.42;1.10;;;8.50;94.60;;;;;;5039791;28;20039;-62
2022/05/30 05:30:41;;;;;;;3.00;1.15;;;8.50;94.60;;;;;;5042849;28;20033;-62
2022/05/30 05:33:07;;;;;;;1.88;0.90;;;8.60;94.60;;;;;;5033283;28;20021;-62
2022/05/30 05:35:32;;;;;;;1.55;0.77;;;8.60;94.60;;;;;;5032951;28;20021;-62
2022/05/30 05:38:00;;;;;;;1.80;0.90;;;8.60;94.60;;;;;;5032654;28;20506;-62
2022/05/30 05:40:27;;;;;;;1.98;0.90;;;8.70;94.60;;;;;;5036779;28;20019;-61
2022/05/30 05:42:52;;;;;;;2.42;0.88;;;8.70;94.60;;;;;;5041742;28;20018;-62
2022/05/30 05:45:18;;;;;;;2.42;0.80;;;8.70;94.60;;;;;;5033746;28;20024;-62
2022/05/30 05:47:44;;;;;;;1.50;0.60;;;8.80;94.60;;;;;;5050694;28;20028;-61
2022/05/30 05:50:10;;;;;;;2.53;1.00;;;8.80;94.60;;;;;;5047039;28;20116;-62
2022/05/30 05:52:36;;;;;;;1.73;0.80;;;8.80;94.60;;;;;;5037441;28;20072;-61
2022/05/30 05:55:02;;;;;;;1.52;0.77;;;8.80;94.60;;;;;;5043801;28;20049;-62
2022/05/30 05:57:28;;;;;;;1.48;0.70;;;8.90;94.60;;;;;;5039692;28;20041;-62
2022/05/30 05:59:54;;;;;;;2.10;0.90;;;8.90;94.80;;;;;;5044648;28;20100;-61
2022/05/30 06:02:20;;;;;;;2.08;0.70;;;8.90;94.50;;;;;;5047128;28;20029;-62
2022/05/30 06:04:46;;;;;;;2.13;0.60;;;9.00;94.50;;;;;;5046451;28;20049;-61
2022/05/30 06:07:12;;;;;;;3.28;1.02;;;9.00;94.50;;;;;;5041901;28;20096;-62
2022/05/30 06:09:39;;;;;;;1.15;0.60;;;9.10;94.50;;;;;;5037184;28;20517;-61
2022/05/30 06:12:07;;;;;;;1.13;0.50;;;9.10;94.40;;;;;;5014441;28;20030;-62
2022/05/30 06:14:33;;;;;;;2.10;1.00;;;9.20;94.50;;;;;;5033740;28;20032;-62
2022/05/30 06:16:59;;;;;;;3.45;1.10;;;9.20;94.50;;;;;;5034945;28;20034;-62
2022/05/30 06:19:24;;;;;;;1.55;0.88;;;9.30;94.60;;;;;;5041630;28;20482;-62
2022/05/30 06:21:50;;;;;;;1.10;0.70;;;9.40;94.60;;;;;;5047301;28;20021;-62
2022/05/30 06:24:16;;;;;;;2.13;0.90;;;9.50;94.70;;;;;;5051093;28;20021;-62
2022/05/30 06:26:44;;;;;;;2.28;0.75;;;9.60;94.70;;;;;;5035103;28;20049;-62
2022/05/30 06:29:11;;;;;;;1.15;0.65;;;9.60;94.90;;;;;;5039788;28;20017;-62
2022/05/30 06:31:37;;;;;;;1.30;0.57;;;9.70;94.60;;;;;;5046782;28;20546;-62
2022/05/30 06:34:03;;;;;;;1.13;0.60;;;9.80;94.60;;;;;;5048783;28;20111;-62
2022/05/30 06:36:28;;;;;;;2.33;0.60;;;9.90;94.50;;;;;;5041523;28;20452;-62
2022/05/30 06:38:56;;;;;;;1.80;0.50;;;10.00;94.50;;;;;;5048788;28;20029;-62
2022/05/30 06:41:24;;;;;;;3.28;0.80;;;10.10;94.50;;;;;;5028883;28;20104;-62
2022/05/30 06:43:55;;;;;;;3.15;0.70;;;10.20;94.40;;;;;;5030522;28;20022;-62
2022/05/30 06:46:21;;;;;;;2.38;0.80;;;10.20;94.30;;;;;;5032243;28;20359;-62
2022/05/30 06:48:48;;;;;;;3.70;0.80;;;10.20;94.30;;;;;;5031705;28;20075;-62
2022/05/30 06:51:18;;;;;;;2.33;0.90;;;10.30;94.30;;;;;;5045690;28;20056;-61
2022/05/30 06:53:43;;;;;;;2.25;0.80;;;10.40;94.20;;;;;;5036077;28;20017;-62
2022/05/30 06:56:27;;;;;;;3.25;0.73;;;10.50;94.20;;;;;;5036225;28;20095;-62
2022/05/30 06:58:53;;;;;;;1.60;0.70;;;10.60;94.10;;;;;;5044707;28;20016;-62
2022/05/30 07:01:24;;;;;;;2.35;0.60;;;10.70;94.00;;;;;;5046063;28;20116;-62
2022/05/30 07:03:49;;;;;;;2.85;0.90;;;10.80;93.90;;;;;;5050924;28;20056;-62
2022/05/30 07:06:19;;;;;;;2.75;0.75;;;10.90;93.70;;;;;;5043505;28;20056;-62
2022/05/30 07:08:46;;;;;;;3.10;1.13;;;11.00;93.50;;;;;;5051503;28;20059;-62
2022/05/30 07:11:16;;;;;;;1.30;0.60;;;11.10;93.40;;;;;;5052769;28;20639;-62
2022/05/30 07:13:42;;;;;;;4.13;0.68;;;11.20;93.30;;;;;;5055263;28;20397;-62
2022/05/30 07:16:09;;;;;;;2.88;0.90;;;11.30;93.00;;;;;;5050102;28;20037;-62
2022/05/30 07:18:34;;;;;;;4.68;0.60;;;11.40;92.80;;;;;;5037494;28;20434;-62
2022/05/30 07:21:04;;;;;;;2.63;0.43;;;11.50;92.50;;;;;;5051688;28;20100;-62
2022/05/30 07:23:31;;;;;;;3.20;0.50;;;11.60;92.20;;;;;;5036652;28;20025;-63
2022/05/30 07:25:58;;;;;;;2.85;0.50;;;11.70;92.00;;;;;;5045835;28;20272;-63
2022/05/30 07:28:25;;;;;;;0.93;0.30;;;11.80;91.80;;;;;;5036701;28;20043;-62
2022/05/30 07:30:51;;;;;;;3.40;0.50;;;12.00;92.00;;;;;;5039009;28;20029;-62
2022/05/30 07:33:17;;;;;;;3.78;0.82;;;12.00;91.50;;;;;;5036146;28;20033;-62
2022/05/30 07:35:43;;;;;;;5.50;0.60;;;12.20;91.10;;;;;;5040254;28;20013;-62
2022/05/30 07:38:09;;;;;;;4.28;0.47;;;12.20;90.30;;;;;;5039456;28;20022;-63
2022/05/30 07:40:34;;;;;;;1.85;0.50;;;12.40;90.00;;;;;;5033289;28;20036;-62
2022/05/30 07:43:00;;;;;;;2.50;0.35;;;12.50;89.40;;;;;;5035548;28;20076;-63
2022/05/30 07:45:26;;;;;;;2.20;0.30;;;12.60;89.00;;;;;;5046278;28;20082;-63
2022/05/30 07:47:51;;;;;;;2.88;0.50;;;12.70;88.50;;;;;;5038477;28;20029;-63
2022/05/30 07:50:18;;;;;;;1.98;0.40;;;12.80;87.80;;;;;;5051509;28;20096;-63
2022/05/30 07:52:44;;;;;;;1.67;0.30;;;12.80;87.20;;;;;;5050185;28;20060;-63
2022/05/30 07:55:10;;;;;;;1.33;0.40;;;12.90;86.70;;;;;;5053336;28;20025;-63
2022/05/30 07:57:51;;;;;;;1.90;0.30;;;13.00;86.00;;;;;;5042420;28;20549;-63
2022/05/30 08:00:18;;;;;;;1.77;0.30;;;13.00;85.20;;;;;;5042665;28;20374;-63
2022/05/30 08:02:44;;;;;;;0.45;0.20;;;13.10;83.90;;;;;;5053989;28;20029;-63
2022/05/30 08:05:12;;;;;;;2.20;0.20;;;13.10;83.10;;;;;;5046323;28;20022;-63
2022/05/30 08:07:39;;;;;;;2.47;0.35;;;13.20;82.90;;;;;;5052022;28;20808;-62
2022/05/30 08:10:06;;;;;;;3.05;0.40;;;13.30;82.30;;;;;;5033527;28;20053;-62
2022/05/30 08:12:32;;;;;;;1.00;0.22;;;13.30;81.50;;;;;;5034700;28;20083;-63
2022/05/30 08:14:58;;;;;;;0.93;0.28;;;13.40;81.00;;;;;;5053396;28;20033;-62
2022/05/30 08:17:24;;;;;;;0.93;0.17;;;13.50;80.60;;;;;;5034651;28;20036;-62
2022/05/30 08:19:49;;;;;;;1.33;0.30;;;13.60;80.30;;;;;;5035689;28;20021;-62
2022/05/30 08:22:15;;;;;;;0.73;0.10;;;13.70;79.50;;;;;;5050114;28;20493;-62
2022/05/30 08:24:51;;;;;;;0.88;0.20;;;13.80;78.90;;;;;;5040566;28;20029;-62
2022/05/30 08:27:18;;;;;;;0.68;0.20;;;13.90;77.90;;;;;;5054543;28;20025;-62
2022/05/30 08:29:43;;;;;;;0.75;0.22;;;14.00;77.50;;;;;;5050865;28;20700;-62
2022/05/30 08:32:09;;;;;;;1.80;0.30;;;14.10;77.30;;;;;;5034569;28;20029;-62
2022/05/30 08:34:36;;;;;;;1.65;0.30;;;14.30;76.40;;;;;;5047290;28;20030;-62
2022/05/30 08:37:04;;;;;;;0.25;0.17;;;14.40;75.90;;;;;;5040257;28;20037;-62
2022/05/30 08:42:14;;;;;;;2.92;0.35;;;14.70;75.20;;;;;;5040850;28;20155;-63
2022/05/30 08:44:40;;;;;;;1.67;0.50;;;14.90;73.90;;;;;;5053151;28;20133;-63
2022/05/30 08:47:51;;;;;;;1.63;0.30;;;15.10;73.50;;;;;;5048573;28;20032;-63
2022/05/30 08:50:31;;;;;;;1.83;0.17;;;15.20;73.00;;;;;;5035993;28;20045;-62
2022/05/30 08:53:35;;;;;;;0.75;0.13;;;15.40;73.10;;;;;;5049971;28;20049;-63
2022/05/30 08:56:16;;;;;;;0.60;0.20;;;15.50;72.20;;;;;;5037237;28;20026;-62
2022/05/30 08:58:55;;;;;;;1.08;0.20;;;15.60;72.50;;;;;;5037999;28;20075;-63
2022/05/30 09:01:27;;;;;;;;;;;15.80;72.30;;;;;;5034338;28;20024;-62
2022/05/30 09:04:10;;;;;;;0.95;0.30;;;15.80;72.40;;;;;;5033909;28;19908;-62
2022/05/30 09:06:45;;;;;;;2.33;0.30;;;15.90;70.70;;;;;;5033353;28;20017;-62
2022/05/30 09:09:22;;;;;;;1.50;0.40;;;15.90;71.00;;;;;;5035601;28;20021;-62
2022/05/30 09:11:55;;;;;;;2.25;0.30;;;16.00;70.00;;;;;;5033336;28;20551;-62
2022/05/30 09:14:36;;;;;;;0.93;0.25;;;16.00;69.50;;;;;;5034761;28;20569;-63
2022/05/30 09:17:06;;;;;;;2.05;0.38;;;16.00;69.40;;;;;;5046272;28;20025;-63
2022/05/30 09:19:32;;;;;;;2.53;0.50;;;16.00;69.40;;;;;;5033460;28;20025;-62
2022/05/30 09:22:04;;;;;;;0.80;0.20;;;16.10;69.00;;;;;;5033234;28;20025;-62
2022/05/30 09:24:34;;;;;;;1.02;0.30;;;16.20;68.80;;;;;;5033313;28;20017;-62
2022/05/30 09:27:01;;;;;;;1.02;0.30;;;16.20;68.50;;;;;;5031903;28;20032;-62
2022/05/30 09:29:39;;;;;;;1.40;0.25;;;16.30;68.40;;;;;;5032941;28;20026;-63
2022/05/30 09:32:14;;;;;;;1.73;0.30;;;16.30;67.70;;;;;;5052826;28;20021;-63
2022/05/30 09:34:46;;;;;;;1.88;0.40;;;16.40;67.20;;;;;;5022392;28;20021;-62
2022/05/30 09:37:31;;;;;;;1.95;0.30;;;16.40;67.00;;;;;;5052740;28;20033;-62
2022/05/30 09:39:57;;;;;;;2.50;0.38;;;16.40;67.00;;;;;;5032953;28;20064;-62
2022/05/30 09:42:51;;;;;;;1.48;0.40;;;16.40;67.40;;;;;;5046800;28;20052;-62
2022/05/30 09:45:29;;;;;;;1.00;0.40;;;16.60;67.10;;;;;;5050699;28;20029;-63
2022/05/30 09:48:02;;;;;;;1.58;0.30;;;16.70;66.90;;;;;;5033263;28;20115;-62
2022/05/30 09:50:28;;;;;;;4.55;0.52;;;16.80;66.20;;;;;;5036040;28;20021;-62
2022/05/30 09:52:54;;;;;;;1.05;0.38;;;17.00;65.70;;;;;;5046621;28;20539;-62
2022/05/30 09:55:24;;;;;;;3.35;0.40;;;17.10;65.10;;;;;;5037908;28;20095;-62
2022/05/30 09:57:50;;;;;;;1.30;0.30;;;17.30;64.00;;;;;;5032207;28;20091;-62
2022/05/30 10:00:27;;;;;;;1.08;0.30;;;17.40;63.90;;;;;;5032331;28;20063;-62
2022/05/30 10:03:11;;;;;;;1.85;0.38;;;17.60;63.50;;;;;;5041777;28;20034;-62
2022/05/30 10:05:37;;;;;;;2.13;0.50;;;17.60;62.60;;;;;;5036639;28;20041;-63
2022/05/30 10:08:24;;;;;;;3.70;0.63;;;17.60;62.70;;;;;;5033478;28;20021;-63
2022/05/30 10:10:52;;;;;;;1.50;0.38;;;17.80;62.30;;;;;;5034694;28;20018;-62
2022/05/30 10:13:39;;;;;;;1.48;0.30;;;17.90;61.80;;;;;;5037111;28;20033;-62
2022/05/30 10:16:09;;;;;;;2.67;0.32;;;18.20;61.70;;;;;;5032289;28;20022;-63
2022/05/30 10:18:35;;;;;;;;;;;18.30;61.70;;;;;;5032703;28;20026;-62
2022/05/30 10:21:09;;;;;;;1.45;0.30;;;18.40;61.90;;;;;;5032091;28;20391;-62
2022/05/30 10:29:44;;;;;;;1.55;0.60;;;18.70;60.60;;;;;;5044782;28;20094;-63
2022/05/30 10:32:30;;;;;;;2.00;0.50;;;18.80;59.80;;;;;;5040756;28;20018;-63
2022/05/30 10:35:17;;;;;;;1.75;0.47;;;18.80;59.90;;;;;;5037361;28;20023;-63
2022/05/30 10:38:11;;;;;;;1.48;0.50;;;19.00;59.90;;;;;;5047377;28;20027;-62
2022/05/30 10:41:15;;;;;;;2.03;0.43;;;19.00;59.00;;;;;;5040307;28;20513;-63
2022/05/30 10:44:02;;;;;;;3.92;0.50;;;19.20;58.00;;;;;;5028603;28;20029;-62
2022/05/30 10:46:40;;;;;;;1.52;0.40;;;19.40;57.70;;;;;;5040861;28;20028;-63
2022/05/30 10:49:19;;;;;;;1.92;0.40;;;19.40;57.40;;;;;;5035860;28;20026;-63
2022/05/30 10:52:14;;;;;;;1.10;0.40;;;19.60;56.80;;;;;;5044881;28;20033;-63
2022/05/30 10:54:50;;;;;;;0.95;0.28;;;19.70;56.40;;;;;;5044764;28;20036;-63
2022/05/30 10:57:50;;;;;;;2.78;0.50;;;19.70;56.20;;;;;;5041485;28;20028;-62
2022/05/30 11:00:22;;;;;;;1.55;0.30;;;19.80;55.50;;;;;;5042645;28;20076;-63
2022/05/30 11:03:29;;;;;;;2.58;0.50;;;19.90;55.90;;;;;;5046291;28;20021;-63
2022/05/30 11:06:23;;;;;;;1.33;0.40;;;20.30;55.40;;;;;;5046975;28;20025;-63
2022/05/30 11:08:58;;;;;;;3.65;0.50;;;20.50;53.90;;;;;;5047717;28;20017;-63
2022/05/30 11:11:34;;;;;;;1.80;0.50;;;20.40;52.80;;;;;;5046937;28;20163;-63
2022/05/30 11:14:31;;;;;;;1.45;0.40;;;20.20;50.70;;;;;;5041367;28;20022;-63
2022/05/30 11:17:13;;;;;;;1.13;0.40;;;20.10;50.90;;;;;;5042372;28;20492;-63
2022/05/30 11:20:16;;;;;;;1.58;0.60;;;20.30;52.00;;;;;;5044476;28;20075;-63
2022/05/30 11:22:50;;;;;;;1.20;0.40;;;20.70;52.60;;;;;;5045610;28;20060;-63
2022/05/30 11:25:21;;;;;;;1.70;0.50;;;20.90;52.40;;;;;;5045488;28;20065;-63
2022/05/30 11:28:04;;;;;;;2.47;0.50;;;21.00;52.50;;;;;;5047164;28;20025;-63
2022/05/30 11:30:35;;;;;;;2.50;0.65;;;21.20;52.30;;;;;;5042951;28;20022;-63
2022/05/30 11:33:29;;;;;;;2.70;0.55;;;21.30;52.20;;;;;;5045958;28;20074;-63
2022/05/30 11:36:16;;;;;;;2.25;0.80;;;21.50;52.20;;;;;;5043013;28;20112;-63
2022/05/30 11:38:56;;;;;;;1.63;0.60;;;21.60;51.80;;;;;;5049982;28;20393;-63
2022/05/30 11:41:41;;;;;;;1.67;0.65;;;21.80;51.70;;;;;;5044634;28;20025;-63
2022/05/30 11:44:35;;;;;;;2.20;0.55;;;21.90;51.60;;;;;;5035235;28;20065;-63
2022/05/30 11:47:21;;;;;;;1.25;0.63;;;22.00;50.60;;;;;;5037905;28;20052;-63
2022/05/30 11:50:09;;;;;;;2.70;0.60;;;22.10;50.90;;;;;;5035169;28;20505;-63
2022/05/30 11:53:23;;;;;;;3.15;0.88;;;22.30;50.40;;;;;;5034944;28;20045;-63
2022/05/30 11:56:06;;;;;;;3.83;0.60;;;22.40;50.30;;;;;;5044565;28;20052;-63
2022/05/30 11:58:46;;;;;;;3.72;0.77;;;22.50;49.80;;;;;;5053789;28;20072;-63
2022/05/30 12:01:12;;;;;;;1.75;0.70;;;22.50;49.70;;;;;;5034444;28;20060;-63
2022/05/30 12:04:15;;;;;;;1.75;0.50;;;22.60;49.40;;;;;;5033368;28;20143;-63
2022/05/30 12:06:58;;;;;;;1.10;0.50;;;22.60;48.80;;;;;;5035019;28;20022;-63
2022/05/30 12:09:23;;;;;;;2.10;0.70;;;22.70;49.00;;;;;;5037664;28;20017;-63
2022/05/30 12:12:10;;;;;;;1.08;0.45;;;22.80;49.10;;;;;;5044259;28;20017;-63
2022/05/30 12:15:09;;;;;;;2.28;0.50;;;22.90;48.80;;;;;;5045416;28;20499;-63
2022/05/30 12:24:18;;;;;;;2.42;0.68;;;21.90;46.10;;;;;;5051684;28;20051;-63
2022/05/30 12:26:53;;;;;;;2.83;0.70;;;21.50;47.40;;;;;;5049514;28;20108;-63
2022/05/30 12:29:37;;;;;;;3.03;0.68;;;21.40;48.10;;;;;;5043018;28;20080;-63
2022/05/30 12:32:09;;;;;;;3.83;0.60;;;21.50;48.00;;;;;;5051471;28;20112;-63
2022/05/30 12:37:44;;;;;;;2.45;0.60;;;21.40;48.60;;;;;;5049846;28;20027;-63
2022/05/30 12:40:41;;;;;;;1.70;0.47;;;21.50;48.90;;;;;;5044365;28;20013;-62
2022/05/30 12:43:26;;;;;;;2.35;0.70;;;21.60;49.10;;;;;;5051670;28;20738;-63
2022/05/30 12:45:55;;;;;;;2.60;0.65;;;21.60;49.00;;;;;;5037977;28;20033;-63
2022/05/30 12:48:30;;;;;;;1.07;0.50;;;21.50;48.90;;;;;;5033802;28;20076;-63
2022/05/30 12:50:55;;;;;;;2.38;0.60;;;21.40;49.00;;;;;;5034016;28;20025;-63
2022/05/30 12:53:24;;;;;;;2.72;0.70;;;21.30;49.30;;;;;;5034124;28;20104;-63
2022/05/30 12:55:53;;;;;;;1.50;0.60;;;21.00;48.30;;;;;;5034560;28;20547;-63
2022/05/30 12:58:42;;;;;;;2.90;1.40;;;20.70;49.00;;;;;;5032498;28;20037;-63
2022/05/30 13:01:09;;;;;;;2.50;0.80;;;20.50;49.30;;;;;;5033106;28;20091;-63
2022/05/30 13:03:40;;;;;;;2.30;1.10;;;19.70;48.80;;;;;;5033908;28;20048;-63
2022/05/30 13:06:21;;;;;;;1.35;0.68;;;19.20;50.70;;;;;;5033796;28;20014;-62
2022/05/30 13:09:13;;;;;;;2.28;0.70;;;19.00;51.20;;;;;;5038860;28;20435;-62
2022/05/30 13:12:07;;;;;;;1.65;0.47;;;19.10;51.30;;;;;;5042692;28;20025;-63
2022/05/30 13:14:51;;;;;;;2.67;0.50;;;19.10;51.10;;;;;;5043632;28;20025;-63
2022/05/30 13:17:19;;;;;;;2.25;0.45;;;19.30;51.00;;;;;;5033355;28;20080;-62
2022/05/30 13:19:49;;;;;;;2.60;0.40;;;19.60;50.50;;;;;;5046844;28;20491;-63
2022/05/30 13:22:30;;;;;;;2.40;0.70;;;19.80;50.20;;;;;;5034206;28;20477;-62
2022/05/30 13:24:56;;;;;;;3.75;0.80;;;19.60;49.30;;;;;;5047174;28;20017;-62
2022/05/30 13:27:22;;;;;;;3.05;0.80;;;18.90;50.60;;;;;;5044524;28;20032;-62
2022/05/30 13:29:47;;;;;;;2.03;0.75;;;18.60;51.70;;;;;;5046791;28;20431;-63
2022/05/30 13:32:15;;;;;;;1.88;0.70;;;18.20;52.00;;;;;;5034811;28;20034;-62
2022/05/30 13:34:48;;;;;;;1.15;0.60;;;18.10;52.60;;;;;;5045241;28;20021;-62